sensor_id;sensor_type;location;lat;lon;timestamp;P1;durP1;ratioP1;P2;durP2;ratioP2
74799;SDS011;63326;45.088;7.658;2024-03-08T00:00:39;8.48;;;4.65;;
74799;SDS011;63326;45.088;7.658;2024-03-08T00:03:15;7.43;;;4.65;;
74799;SDS011;63326;45.088;7.658;2024-03-08T00:05:42;5.78;;;3.10;;
74799;SDS011;63326;45.088;7.658;2024-03-08T00:08:11;8.75;;;3.63;;
74799;SDS011;63326;45.088;7.658;2024-03-08T00:10:38;5.30;;;3.75;;
74799;SDS011;63326;45.088;7.658;2024-03-08T00:13:06;6.03;;;3.80;;
74799;SDS011;63326;45.088;7.658;2024-03-08T00:15:34;6.63;;;3.40;;
74799;SDS011;63326;45.088;7.658;2024-03-08T00:18:05;5.90;;;2.90;;
74799;SDS011;63326;45.088;7.658;2024-03-08T00:20:33;7.97;;;3.72;;
74799;SDS011;63326;45.088;7.658;2024-03-08T00:23:00;7.40;;;4.05;;
74799;SDS011;63326;45.088;7.658;2024-03-08T00:25:27;7.70;;;3.95;;
74799;SDS011;63326;45.088;7.658;2024-03-08T00:27:56;9.02;;;5.22;;
74799;SDS011;63326;45.088;7.658;2024-03-08T00:30:27;8.77;;;4.70;;
74799;SDS011;63326;45.088;7.658;2024-03-08T00:32:55;8.77;;;4.35;;
74799;SDS011;63326;45.088;7.658;2024-03-08T00:35:22;5.60;;;2.92;;
74799;SDS011;63326;45.088;7.658;2024-03-08T00:37:50;5.60;;;3.53;;
74799;SDS011;63326;45.088;7.658;2024-03-08T00:40:19;6.63;;;4.07;;
74799;SDS011;63326;45.088;7.658;2024-03-08T00:42:46;7.85;;;4.13;;
74799;SDS011;63326;45.088;7.658;2024-03-08T00:45:17;6.40;;;4.13;;
74799;SDS011;63326;45.088;7.658;2024-03-08T00:47:43;7.07;;;3.92;;
74799;SDS011;63326;45.088;7.658;2024-03-08T00:50:15;6.18;;;3.53;;
74799;SDS011;63326;45.088;7.658;2024-03-08T00:52:45;10.88;;;4.13;;
74799;SDS011;63326;45.088;7.658;2024-03-08T00:55:13;9.18;;;4.20;;
74799;SDS011;63326;45.088;7.658;2024-03-08T00:57:45;7.22;;;4.18;;
74799;SDS011;63326;45.088;7.658;2024-03-08T01:00:16;8.05;;;4.55;;
74799;SDS011;63326;45.088;7.658;2024-03-08T01:02:47;5.68;;;4.25;;
74799;SDS011;63326;45.088;7.658;2024-03-08T01:05:14;7.10;;;3.75;;
74799;SDS011;63326;45.088;7.658;2024-03-08T01:07:46;7.47;;;3.85;;
74799;SDS011;63326;45.088;7.658;2024-03-08T01:10:13;6.00;;;3.80;;
74799;SDS011;63326;45.088;7.658;2024-03-08T01:12:40;8.75;;;4.35;;
74799;SDS011;63326;45.088;7.658;2024-03-08T01:17:39;5.80;;;3.75;;
74799;SDS011;63326;45.088;7.658;2024-03-08T01:20:07;6.20;;;3.83;;
74799;SDS011;63326;45.088;7.658;2024-03-08T01:22:37;8.15;;;3.60;;
74799;SDS011;63326;45.088;7.658;2024-03-08T01:25:06;8.25;;;4.05;;
74799;SDS011;63326;45.088;7.658;2024-03-08T01:27:36;6.05;;;4.25;;
74799;SDS011;63326;45.088;7.658;2024-03-08T01:30:05;7.78;;;5.15;;
74799;SDS011;63326;45.088;7.658;2024-03-08T01:32:33;6.43;;;4.55;;
74799;SDS011;63326;45.088;7.658;2024-03-08T01:35:00;5.35;;;3.60;;
74799;SDS011;63326;45.088;7.658;2024-03-08T01:37:31;7.65;;;3.58;;
74799;SDS011;63326;45.088;7.658;2024-03-08T01:39:59;9.15;;;3.97;;
74799;SDS011;63326;45.088;7.658;2024-03-08T01:42:30;6.85;;;4.53;;
74799;SDS011;63326;45.088;7.658;2024-03-08T01:44:59;6.45;;;3.72;;
74799;SDS011;63326;45.088;7.658;2024-03-08T01:47:27;6.63;;;4.75;;
74799;SDS011;63326;45.088;7.658;2024-03-08T01:50:01;7.50;;;4.65;;
74799;SDS011;63326;45.088;7.658;2024-03-08T01:52:33;16.45;;;4.32;;
74799;SDS011;63326;45.088;7.658;2024-03-08T01:55:02;6.90;;;4.43;;
74799;SDS011;63326;45.088;7.658;2024-03-08T01:57:34;10.57;;;4.78;;
74799;SDS011;63326;45.088;7.658;2024-03-08T02:02:35;8.07;;;3.60;;
74799;SDS011;63326;45.088;7.658;2024-03-08T02:05:03;13.18;;;4.88;;
74799;SDS011;63326;45.088;7.658;2024-03-08T02:07:31;6.90;;;3.97;;
74799;SDS011;63326;45.088;7.658;2024-03-08T02:10:00;6.40;;;3.92;;
74799;SDS011;63326;45.088;7.658;2024-03-08T02:12:31;5.97;;;3.85;;
74799;SDS011;63326;45.088;7.658;2024-03-08T02:14:58;6.03;;;3.95;;
74799;SDS011;63326;45.088;7.658;2024-03-08T02:17:33;9.07;;;4.00;;
74799;SDS011;63326;45.088;7.658;2024-03-08T02:20:02;13.00;;;5.05;;
74799;SDS011;63326;45.088;7.658;2024-03-08T02:22:31;7.88;;;4.57;;
74799;SDS011;63326;45.088;7.658;2024-03-08T02:25:03;8.52;;;4.88;;
74799;SDS011;63326;45.088;7.658;2024-03-08T02:30:01;5.07;;;3.67;;
74799;SDS011;63326;45.088;7.658;2024-03-08T02:32:28;13.25;;;4.97;;
74799;SDS011;63326;45.088;7.658;2024-03-08T02:34:57;7.65;;;4.05;;
74799;SDS011;63326;45.088;7.658;2024-03-08T02:37:27;8.70;;;5.28;;
74799;SDS011;63326;45.088;7.658;2024-03-08T02:39:56;6.20;;;4.22;;
74799;SDS011;63326;45.088;7.658;2024-03-08T02:42:24;8.50;;;4.00;;
74799;SDS011;63326;45.088;7.658;2024-03-08T02:44:53;6.85;;;3.55;;
74799;SDS011;63326;45.088;7.658;2024-03-08T02:47:23;8.43;;;5.20;;
74799;SDS011;63326;45.088;7.658;2024-03-08T02:49:56;5.07;;;3.53;;
74799;SDS011;63326;45.088;7.658;2024-03-08T02:52:23;9.18;;;4.53;;
74799;SDS011;63326;45.088;7.658;2024-03-08T02:54:54;8.75;;;3.42;;
74799;SDS011;63326;45.088;7.658;2024-03-08T02:57:25;6.28;;;3.95;;
74799;SDS011;63326;45.088;7.658;2024-03-08T02:59:54;7.22;;;4.25;;
74799;SDS011;63326;45.088;7.658;2024-03-08T03:02:31;7.88;;;4.47;;
74799;SDS011;63326;45.088;7.658;2024-03-08T03:05:01;7.25;;;4.32;;
74799;SDS011;63326;45.088;7.658;2024-03-08T03:07:35;7.88;;;4.05;;
74799;SDS011;63326;45.088;7.658;2024-03-08T03:10:11;6.88;;;4.20;;
74799;SDS011;63326;45.088;7.658;2024-03-08T03:12:40;10.10;;;4.65;;
74799;SDS011;63326;45.088;7.658;2024-03-08T03:15:12;9.18;;;4.00;;
74799;SDS011;63326;45.088;7.658;2024-03-08T03:17:46;5.68;;;4.13;;
74799;SDS011;63326;45.088;7.658;2024-03-08T03:20:14;15.00;;;4.20;;
74799;SDS011;63326;45.088;7.658;2024-03-08T03:22:49;7.82;;;3.92;;
74799;SDS011;63326;45.088;7.658;2024-03-08T03:25:20;8.38;;;5.15;;
74799;SDS011;63326;45.088;7.658;2024-03-08T03:27:55;5.78;;;4.38;;
74799;SDS011;63326;45.088;7.658;2024-03-08T03:30:23;6.35;;;3.90;;
74799;SDS011;63326;45.088;7.658;2024-03-08T03:32:54;6.55;;;4.38;;
74799;SDS011;63326;45.088;7.658;2024-03-08T03:35:23;6.82;;;3.88;;
74799;SDS011;63326;45.088;7.658;2024-03-08T03:37:53;5.90;;;4.25;;
74799;SDS011;63326;45.088;7.658;2024-03-08T03:40:36;8.43;;;4.63;;
74799;SDS011;63326;45.088;7.658;2024-03-08T03:43:05;7.53;;;3.88;;
74799;SDS011;63326;45.088;7.658;2024-03-08T03:45:34;6.78;;;4.40;;
74799;SDS011;63326;45.088;7.658;2024-03-08T03:48:06;8.15;;;4.30;;
74799;SDS011;63326;45.088;7.658;2024-03-08T03:50:36;8.60;;;4.20;;
74799;SDS011;63326;45.088;7.658;2024-03-08T03:53:04;8.52;;;4.40;;
74799;SDS011;63326;45.088;7.658;2024-03-08T03:55:34;7.43;;;4.25;;
74799;SDS011;63326;45.088;7.658;2024-03-08T03:58:03;8.45;;;4.35;;
74799;SDS011;63326;45.088;7.658;2024-03-08T04:00:30;7.90;;;4.72;;
74799;SDS011;63326;45.088;7.658;2024-03-08T04:02:57;7.85;;;4.47;;
74799;SDS011;63326;45.088;7.658;2024-03-08T04:05:28;6.53;;;4.60;;
74799;SDS011;63326;45.088;7.658;2024-03-08T04:07:56;6.57;;;3.97;;
74799;SDS011;63326;45.088;7.658;2024-03-08T04:10:25;11.10;;;5.90;;
74799;SDS011;63326;45.088;7.658;2024-03-08T04:12:55;8.82;;;5.50;;
74799;SDS011;63326;45.088;7.658;2024-03-08T04:15:27;7.80;;;4.78;;
74799;SDS011;63326;45.088;7.658;2024-03-08T04:17:56;8.35;;;5.53;;
74799;SDS011;63326;45.088;7.658;2024-03-08T04:20:24;10.43;;;4.65;;
74799;SDS011;63326;45.088;7.658;2024-03-08T04:22:53;10.00;;;4.47;;
74799;SDS011;63326;45.088;7.658;2024-03-08T04:25:21;6.93;;;4.45;;
74799;SDS011;63326;45.088;7.658;2024-03-08T04:27:51;8.07;;;4.70;;
74799;SDS011;63326;45.088;7.658;2024-03-08T04:30:21;7.35;;;5.10;;
74799;SDS011;63326;45.088;7.658;2024-03-08T04:32:48;8.23;;;4.82;;
74799;SDS011;63326;45.088;7.658;2024-03-08T04:35:19;11.45;;;5.03;;
74799;SDS011;63326;45.088;7.658;2024-03-08T04:37:46;10.40;;;5.55;;
74799;SDS011;63326;45.088;7.658;2024-03-08T04:40:15;7.13;;;5.05;;
74799;SDS011;63326;45.088;7.658;2024-03-08T04:42:42;8.55;;;4.78;;
74799;SDS011;63326;45.088;7.658;2024-03-08T04:45:13;9.38;;;5.18;;
74799;SDS011;63326;45.088;7.658;2024-03-08T04:47:41;8.27;;;5.15;;
74799;SDS011;63326;45.088;7.658;2024-03-08T04:50:11;9.15;;;5.63;;
74799;SDS011;63326;45.088;7.658;2024-03-08T04:52:38;7.60;;;5.13;;
74799;SDS011;63326;45.088;7.658;2024-03-08T04:55:05;15.30;;;6.38;;
74799;SDS011;63326;45.088;7.658;2024-03-08T04:57:36;10.90;;;4.97;;
74799;SDS011;63326;45.088;7.658;2024-03-08T05:00:06;9.43;;;5.28;;
74799;SDS011;63326;45.088;7.658;2024-03-08T05:02:38;8.20;;;5.25;;
74799;SDS011;63326;45.088;7.658;2024-03-08T05:05:08;8.63;;;5.07;;
74799;SDS011;63326;45.088;7.658;2024-03-08T05:07:43;7.93;;;5.72;;
74799;SDS011;63326;45.088;7.658;2024-03-08T05:10:12;11.43;;;6.68;;
74799;SDS011;63326;45.088;7.658;2024-03-08T05:12:45;8.35;;;4.53;;
74799;SDS011;63326;45.088;7.658;2024-03-08T05:15:12;9.40;;;6.60;;
74799;SDS011;63326;45.088;7.658;2024-03-08T05:17:41;8.15;;;5.30;;
74799;SDS011;63326;45.088;7.658;2024-03-08T05:20:11;9.60;;;5.68;;
74799;SDS011;63326;45.088;7.658;2024-03-08T05:22:39;9.88;;;4.90;;
74799;SDS011;63326;45.088;7.658;2024-03-08T05:25:08;7.70;;;5.30;;
74799;SDS011;63326;45.088;7.658;2024-03-08T05:27:35;12.45;;;6.32;;
74799;SDS011;63326;45.088;7.658;2024-03-08T05:30:05;10.45;;;5.95;;
74799;SDS011;63326;45.088;7.658;2024-03-08T05:32:32;10.38;;;6.47;;
74799;SDS011;63326;45.088;7.658;2024-03-08T05:37:28;10.88;;;6.10;;
74799;SDS011;63326;45.088;7.658;2024-03-08T05:39:57;8.32;;;5.70;;
74799;SDS011;63326;45.088;7.658;2024-03-08T05:42:24;8.55;;;6.25;;
74799;SDS011;63326;45.088;7.658;2024-03-08T05:44:51;11.07;;;6.93;;
74799;SDS011;63326;45.088;7.658;2024-03-08T05:47:20;8.68;;;5.00;;
74799;SDS011;63326;45.088;7.658;2024-03-08T05:49:47;10.50;;;6.15;;
74799;SDS011;63326;45.088;7.658;2024-03-08T05:52:15;9.75;;;5.38;;
74799;SDS011;63326;45.088;7.658;2024-03-08T05:54:43;13.35;;;6.97;;
74799;SDS011;63326;45.088;7.658;2024-03-08T05:57:13;11.50;;;7.68;;
74799;SDS011;63326;45.088;7.658;2024-03-08T05:59:42;9.65;;;5.47;;
74799;SDS011;63326;45.088;7.658;2024-03-08T06:02:10;11.05;;;6.13;;
74799;SDS011;63326;45.088;7.658;2024-03-08T06:04:38;9.68;;;6.82;;
74799;SDS011;63326;45.088;7.658;2024-03-08T06:07:11;8.80;;;6.25;;
74799;SDS011;63326;45.088;7.658;2024-03-08T06:09:39;8.38;;;5.38;;
74799;SDS011;63326;45.088;7.658;2024-03-08T06:12:07;10.85;;;6.55;;
74799;SDS011;63326;45.088;7.658;2024-03-08T06:14:37;11.07;;;6.50;;
74799;SDS011;63326;45.088;7.658;2024-03-08T06:17:06;14.07;;;7.70;;
74799;SDS011;63326;45.088;7.658;2024-03-08T06:19:36;10.57;;;5.93;;
74799;SDS011;63326;45.088;7.658;2024-03-08T06:22:03;13.18;;;6.32;;
74799;SDS011;63326;45.088;7.658;2024-03-08T06:24:33;10.75;;;6.00;;
74799;SDS011;63326;45.088;7.658;2024-03-08T06:27:03;10.35;;;7.18;;
74799;SDS011;63326;45.088;7.658;2024-03-08T06:29:30;13.20;;;8.75;;
74799;SDS011;63326;45.088;7.658;2024-03-08T06:31:57;11.68;;;7.03;;
74799;SDS011;63326;45.088;7.658;2024-03-08T06:34:26;12.52;;;8.18;;
74799;SDS011;63326;45.088;7.658;2024-03-08T06:36:55;15.80;;;8.18;;
74799;SDS011;63326;45.088;7.658;2024-03-08T06:39:27;11.45;;;7.22;;
74799;SDS011;63326;45.088;7.658;2024-03-08T06:41:58;9.35;;;6.85;;
74799;SDS011;63326;45.088;7.658;2024-03-08T06:44:27;9.35;;;6.78;;
74799;SDS011;63326;45.088;7.658;2024-03-08T06:46:55;11.10;;;8.32;;
74799;SDS011;63326;45.088;7.658;2024-03-08T06:49:26;11.52;;;7.63;;
74799;SDS011;63326;45.088;7.658;2024-03-08T06:51:53;12.65;;;8.25;;
74799;SDS011;63326;45.088;7.658;2024-03-08T06:54:23;11.60;;;7.15;;
74799;SDS011;63326;45.088;7.658;2024-03-08T06:56:51;13.10;;;6.78;;
74799;SDS011;63326;45.088;7.658;2024-03-08T06:59:22;11.82;;;7.80;;
74799;SDS011;63326;45.088;7.658;2024-03-08T07:01:49;13.63;;;7.93;;
74799;SDS011;63326;45.088;7.658;2024-03-08T07:04:18;12.13;;;7.90;;
74799;SDS011;63326;45.088;7.658;2024-03-08T07:06:47;10.27;;;7.88;;
74799;SDS011;63326;45.088;7.658;2024-03-08T07:09:17;15.98;;;7.60;;
74799;SDS011;63326;45.088;7.658;2024-03-08T07:11:44;14.52;;;8.27;;
74799;SDS011;63326;45.088;7.658;2024-03-08T07:14:14;15.98;;;8.10;;
74799;SDS011;63326;45.088;7.658;2024-03-08T07:16:43;12.73;;;8.93;;
74799;SDS011;63326;45.088;7.658;2024-03-08T07:19:13;13.57;;;6.78;;
74799;SDS011;63326;45.088;7.658;2024-03-08T07:21:42;16.10;;;9.45;;
74799;SDS011;63326;45.088;7.658;2024-03-08T07:24:15;12.27;;;7.35;;
74799;SDS011;63326;45.088;7.658;2024-03-08T07:27:06;16.00;;;9.00;;
74799;SDS011;63326;45.088;7.658;2024-03-08T07:29:34;14.68;;;9.85;;
74799;SDS011;63326;45.088;7.658;2024-03-08T07:32:04;12.65;;;8.77;;
74799;SDS011;63326;45.088;7.658;2024-03-08T07:34:49;18.65;;;8.18;;
74799;SDS011;63326;45.088;7.658;2024-03-08T07:37:17;14.45;;;8.35;;
74799;SDS011;63326;45.088;7.658;2024-03-08T07:39:45;18.48;;;9.38;;
74799;SDS011;63326;45.088;7.658;2024-03-08T07:42:13;15.20;;;9.35;;
74799;SDS011;63326;45.088;7.658;2024-03-08T07:44:43;14.00;;;9.25;;
74799;SDS011;63326;45.088;7.658;2024-03-08T07:47:09;13.82;;;9.93;;
74799;SDS011;63326;45.088;7.658;2024-03-08T07:49:37;14.75;;;8.15;;
74799;SDS011;63326;45.088;7.658;2024-03-08T07:52:05;15.88;;;8.88;;
74799;SDS011;63326;45.088;7.658;2024-03-08T07:54:34;14.02;;;7.72;;
74799;SDS011;63326;45.088;7.658;2024-03-08T07:57:03;19.67;;;10.27;;
74799;SDS011;63326;45.088;7.658;2024-03-08T07:59:31;17.77;;;11.13;;
74799;SDS011;63326;45.088;7.658;2024-03-08T08:02:00;17.80;;;10.20;;
74799;SDS011;63326;45.088;7.658;2024-03-08T08:04:27;13.20;;;9.05;;
74799;SDS011;63326;45.088;7.658;2024-03-08T08:07:00;16.75;;;10.63;;
74799;SDS011;63326;45.088;7.658;2024-03-08T08:09:26;13.25;;;8.82;;
74799;SDS011;63326;45.088;7.658;2024-03-08T08:12:02;14.02;;;8.13;;
74799;SDS011;63326;45.088;7.658;2024-03-08T08:14:30;13.43;;;8.55;;
74799;SDS011;63326;45.088;7.658;2024-03-08T08:16:57;13.77;;;9.48;;
74799;SDS011;63326;45.088;7.658;2024-03-08T08:19:28;16.60;;;9.32;;
74799;SDS011;63326;45.088;7.658;2024-03-08T08:21:56;10.98;;;7.45;;
74799;SDS011;63326;45.088;7.658;2024-03-08T08:24:25;15.13;;;9.30;;
74799;SDS011;63326;45.088;7.658;2024-03-08T08:27:00;10.98;;;6.57;;
74799;SDS011;63326;45.088;7.658;2024-03-08T08:29:27;12.15;;;8.00;;
74799;SDS011;63326;45.088;7.658;2024-03-08T08:31:53;14.80;;;9.00;;
74799;SDS011;63326;45.088;7.658;2024-03-08T08:34:22;13.65;;;8.35;;
74799;SDS011;63326;45.088;7.658;2024-03-08T08:36:52;13.60;;;7.75;;
74799;SDS011;63326;45.088;7.658;2024-03-08T08:39:21;12.30;;;7.50;;
74799;SDS011;63326;45.088;7.658;2024-03-08T08:41:49;14.02;;;6.72;;
74799;SDS011;63326;45.088;7.658;2024-03-08T08:44:19;15.77;;;9.07;;
74799;SDS011;63326;45.088;7.658;2024-03-08T08:46:48;14.20;;;8.35;;
74799;SDS011;63326;45.088;7.658;2024-03-08T08:49:18;14.75;;;8.00;;
74799;SDS011;63326;45.088;7.658;2024-03-08T08:51:50;16.55;;;9.68;;
74799;SDS011;63326;45.088;7.658;2024-03-08T08:54:18;15.65;;;10.75;;
74799;SDS011;63326;45.088;7.658;2024-03-08T08:56:49;20.83;;;10.48;;
74799;SDS011;63326;45.088;7.658;2024-03-08T08:59:17;17.30;;;10.70;;
74799;SDS011;63326;45.088;7.658;2024-03-08T09:02:07;16.88;;;10.60;;
74799;SDS011;63326;45.088;7.658;2024-03-08T09:04:44;17.83;;;9.75;;
74799;SDS011;63326;45.088;7.658;2024-03-08T09:07:12;18.70;;;10.02;;
74799;SDS011;63326;45.088;7.658;2024-03-08T09:09:41;13.13;;;9.77;;
74799;SDS011;63326;45.088;7.658;2024-03-08T09:12:11;16.50;;;10.13;;
74799;SDS011;63326;45.088;7.658;2024-03-08T09:14:40;17.40;;;11.27;;
74799;SDS011;63326;45.088;7.658;2024-03-08T09:17:08;19.65;;;11.43;;
74799;SDS011;63326;45.088;7.658;2024-03-08T09:19:35;18.25;;;11.20;;
74799;SDS011;63326;45.088;7.658;2024-03-08T09:22:04;18.98;;;10.85;;
74799;SDS011;63326;45.088;7.658;2024-03-08T09:27:02;17.48;;;11.48;;
74799;SDS011;63326;45.088;7.658;2024-03-08T09:29:31;19.77;;;11.68;;
74799;SDS011;63326;45.088;7.658;2024-03-08T09:32:04;16.83;;;11.13;;
74799;SDS011;63326;45.088;7.658;2024-03-08T09:34:33;19.10;;;13.93;;
74799;SDS011;63326;45.088;7.658;2024-03-08T09:37:04;16.42;;;11.05;;
74799;SDS011;63326;45.088;7.658;2024-03-08T09:39:32;21.08;;;12.32;;
74799;SDS011;63326;45.088;7.658;2024-03-08T09:44:36;14.60;;;9.60;;
74799;SDS011;63326;45.088;7.658;2024-03-08T09:49:34;15.38;;;9.55;;
74799;SDS011;63326;45.088;7.658;2024-03-08T09:52:04;18.98;;;10.25;;
74799;SDS011;63326;45.088;7.658;2024-03-08T09:54:31;21.48;;;11.45;;
74799;SDS011;63326;45.088;7.658;2024-03-08T09:57:00;20.65;;;10.50;;
74799;SDS011;63326;45.088;7.658;2024-03-08T09:59:30;21.58;;;11.70;;
74799;SDS011;63326;45.088;7.658;2024-03-08T10:02:12;21.00;;;11.77;;
74799;SDS011;63326;45.088;7.658;2024-03-08T10:04:53;18.77;;;11.48;;
74799;SDS011;63326;45.088;7.658;2024-03-08T10:07:24;18.85;;;11.25;;
74799;SDS011;63326;45.088;7.658;2024-03-08T10:09:59;17.90;;;10.65;;
74799;SDS011;63326;45.088;7.658;2024-03-08T10:12:26;24.40;;;12.25;;
74799;SDS011;63326;45.088;7.658;2024-03-08T10:14:58;19.23;;;11.20;;
74799;SDS011;63326;45.088;7.658;2024-03-08T10:17:27;18.50;;;11.55;;
74799;SDS011;63326;45.088;7.658;2024-03-08T10:20:01;19.23;;;11.52;;
74799;SDS011;63326;45.088;7.658;2024-03-08T10:22:42;15.65;;;10.20;;
74799;SDS011;63326;45.088;7.658;2024-03-08T10:25:28;21.88;;;11.43;;
74799;SDS011;63326;45.088;7.658;2024-03-08T10:28:03;21.58;;;10.43;;
74799;SDS011;63326;45.088;7.658;2024-03-08T10:30:33;19.95;;;10.90;;
74799;SDS011;63326;45.088;7.658;2024-03-08T10:33:00;18.58;;;11.80;;
74799;SDS011;63326;45.088;7.658;2024-03-08T10:35:29;26.05;;;12.60;;
74799;SDS011;63326;45.088;7.658;2024-03-08T10:37:56;22.00;;;12.35;;
74799;SDS011;63326;45.088;7.658;2024-03-08T10:40:29;22.48;;;12.90;;
74799;SDS011;63326;45.088;7.658;2024-03-08T10:43:03;23.50;;;13.23;;
74799;SDS011;63326;45.088;7.658;2024-03-08T10:45:38;23.23;;;12.13;;
74799;SDS011;63326;45.088;7.658;2024-03-08T10:51:05;19.92;;;11.75;;
74799;SDS011;63326;45.088;7.658;2024-03-08T10:53:35;24.52;;;11.52;;
74799;SDS011;63326;45.088;7.658;2024-03-08T10:56:10;24.42;;;8.95;;
74799;SDS011;63326;45.088;7.658;2024-03-08T10:58:39;24.08;;;11.88;;
74799;SDS011;63326;45.088;7.658;2024-03-08T11:01:08;20.08;;;10.35;;
74799;SDS011;63326;45.088;7.658;2024-03-08T11:06:46;16.80;;;11.40;;
74799;SDS011;63326;45.088;7.658;2024-03-08T11:14:56;22.75;;;11.93;;
74799;SDS011;63326;45.088;7.658;2024-03-08T11:20:16;28.23;;;12.07;;
74799;SDS011;63326;45.088;7.658;2024-03-08T11:22:55;23.98;;;11.32;;
74799;SDS011;63326;45.088;7.658;2024-03-08T11:25:37;25.70;;;12.65;;
74799;SDS011;63326;45.088;7.658;2024-03-08T11:28:18;16.98;;;9.93;;
74799;SDS011;63326;45.088;7.658;2024-03-08T11:33:30;25.58;;;12.05;;
74799;SDS011;63326;45.088;7.658;2024-03-08T11:36:10;26.75;;;14.05;;
74799;SDS011;63326;45.088;7.658;2024-03-08T11:38:42;23.10;;;11.85;;
74799;SDS011;63326;45.088;7.658;2024-03-08T11:41:19;23.17;;;11.95;;
74799;SDS011;63326;45.088;7.658;2024-03-08T11:43:48;21.17;;;10.80;;
74799;SDS011;63326;45.088;7.658;2024-03-08T11:46:16;24.58;;;13.18;;
74799;SDS011;63326;45.088;7.658;2024-03-08T11:51:14;18.92;;;10.52;;
74799;SDS011;63326;45.088;7.658;2024-03-08T11:53:45;16.60;;;9.50;;
74799;SDS011;63326;45.088;7.658;2024-03-08T11:56:14;22.10;;;13.75;;
74799;SDS011;63326;45.088;7.658;2024-03-08T11:58:52;15.48;;;9.93;;
74799;SDS011;63326;45.088;7.658;2024-03-08T12:01:31;25.45;;;13.10;;
74799;SDS011;63326;45.088;7.658;2024-03-08T12:23:45;22.13;;;11.90;;
74799;SDS011;63326;45.088;7.658;2024-03-08T12:26:24;22.05;;;11.48;;
74799;SDS011;63326;45.088;7.658;2024-03-08T12:28:52;24.92;;;12.60;;
74799;SDS011;63326;45.088;7.658;2024-03-08T12:31:41;22.85;;;13.70;;
74799;SDS011;63326;45.088;7.658;2024-03-08T12:34:10;23.95;;;12.07;;
74799;SDS011;63326;45.088;7.658;2024-03-08T12:36:37;19.70;;;10.15;;
74799;SDS011;63326;45.088;7.658;2024-03-08T12:39:10;19.58;;;10.52;;
74799;SDS011;63326;45.088;7.658;2024-03-08T12:41:44;21.65;;;12.48;;
74799;SDS011;63326;45.088;7.658;2024-03-08T12:44:14;25.17;;;12.50;;
74799;SDS011;63326;45.088;7.658;2024-03-08T12:46:48;20.23;;;9.02;;
74799;SDS011;63326;45.088;7.658;2024-03-08T12:49:19;25.25;;;11.43;;
74799;SDS011;63326;45.088;7.658;2024-03-08T12:51:52;21.98;;;12.25;;
74799;SDS011;63326;45.088;7.658;2024-03-08T12:54:19;26.15;;;11.68;;
74799;SDS011;63326;45.088;7.658;2024-03-08T12:56:55;22.50;;;11.23;;
74799;SDS011;63326;45.088;7.658;2024-03-08T12:59:28;21.33;;;10.90;;
74799;SDS011;63326;45.088;7.658;2024-03-08T13:01:55;20.08;;;9.88;;
74799;SDS011;63326;45.088;7.658;2024-03-08T13:04:26;21.17;;;10.88;;
74799;SDS011;63326;45.088;7.658;2024-03-08T13:06:53;19.65;;;11.05;;
74799;SDS011;63326;45.088;7.658;2024-03-08T13:09:23;23.35;;;10.35;;
74799;SDS011;63326;45.088;7.658;2024-03-08T13:11:54;21.30;;;8.90;;
74799;SDS011;63326;45.088;7.658;2024-03-08T13:14:26;22.65;;;10.93;;
74799;SDS011;63326;45.088;7.658;2024-03-08T13:16:53;19.35;;;10.82;;
74799;SDS011;63326;45.088;7.658;2024-03-08T13:19:27;13.65;;;8.57;;
74799;SDS011;63326;45.088;7.658;2024-03-08T13:21:55;23.92;;;12.30;;
74799;SDS011;63326;45.088;7.658;2024-03-08T13:24:26;22.23;;;11.18;;
74799;SDS011;63326;45.088;7.658;2024-03-08T13:26:53;23.77;;;11.52;;
74799;SDS011;63326;45.088;7.658;2024-03-08T13:29:23;23.58;;;12.60;;
74799;SDS011;63326;45.088;7.658;2024-03-08T13:31:51;19.45;;;9.23;;
74799;SDS011;63326;45.088;7.658;2024-03-08T13:34:22;21.02;;;9.90;;
74799;SDS011;63326;45.088;7.658;2024-03-08T13:37:03;25.20;;;11.73;;
74799;SDS011;63326;45.088;7.658;2024-03-08T13:39:35;25.25;;;9.82;;
74799;SDS011;63326;45.088;7.658;2024-03-08T13:42:10;22.50;;;10.73;;
74799;SDS011;63326;45.088;7.658;2024-03-08T13:44:43;18.95;;;10.48;;
74799;SDS011;63326;45.088;7.658;2024-03-08T13:47:12;20.30;;;10.98;;
74799;SDS011;63326;45.088;7.658;2024-03-08T13:49:43;21.73;;;10.25;;
74799;SDS011;63326;45.088;7.658;2024-03-08T13:52:12;19.70;;;11.02;;
74799;SDS011;63326;45.088;7.658;2024-03-08T13:54:42;22.98;;;10.30;;
74799;SDS011;63326;45.088;7.658;2024-03-08T13:57:11;14.27;;;9.02;;
74799;SDS011;63326;45.088;7.658;2024-03-08T13:59:39;21.92;;;10.35;;
74799;SDS011;63326;45.088;7.658;2024-03-08T14:02:07;23.80;;;12.68;;
74799;SDS011;63326;45.088;7.658;2024-03-08T14:04:45;20.15;;;11.68;;
74799;SDS011;63326;45.088;7.658;2024-03-08T14:07:15;23.17;;;12.25;;
74799;SDS011;63326;45.088;7.658;2024-03-08T14:09:42;20.52;;;11.80;;
74799;SDS011;63326;45.088;7.658;2024-03-08T14:12:10;20.80;;;11.38;;
74799;SDS011;63326;45.088;7.658;2024-03-08T14:17:05;20.15;;;10.48;;
74799;SDS011;63326;45.088;7.658;2024-03-08T14:19:33;16.95;;;8.88;;
74799;SDS011;63326;45.088;7.658;2024-03-08T14:22:01;17.67;;;9.85;;
74799;SDS011;63326;45.088;7.658;2024-03-08T14:24:31;20.63;;;10.68;;
74799;SDS011;63326;45.088;7.658;2024-03-08T14:26:57;22.92;;;10.48;;
74799;SDS011;63326;45.088;7.658;2024-03-08T14:31:56;17.92;;;8.40;;
74799;SDS011;63326;45.088;7.658;2024-03-08T14:34:29;25.63;;;11.63;;
74799;SDS011;63326;45.088;7.658;2024-03-08T14:36:57;22.60;;;10.57;;
74799;SDS011;63326;45.088;7.658;2024-03-08T14:39:29;18.40;;;8.57;;
74799;SDS011;63326;45.088;7.658;2024-03-08T14:41:56;20.23;;;9.02;;
74799;SDS011;63326;45.088;7.658;2024-03-08T14:44:27;21.85;;;12.23;;
74799;SDS011;63326;45.088;7.658;2024-03-08T14:46:57;22.88;;;12.90;;
74799;SDS011;63326;45.088;7.658;2024-03-08T14:49:30;25.13;;;11.32;;
74799;SDS011;63326;45.088;7.658;2024-03-08T14:52:14;25.42;;;12.48;;
74799;SDS011;63326;45.088;7.658;2024-03-08T14:54:59;19.15;;;11.60;;
74799;SDS011;63326;45.088;7.658;2024-03-08T14:57:29;27.05;;;12.73;;
74799;SDS011;63326;45.088;7.658;2024-03-08T15:00:05;24.70;;;9.88;;
74799;SDS011;63326;45.088;7.658;2024-03-08T15:02:43;17.65;;;11.75;;
74799;SDS011;63326;45.088;7.658;2024-03-08T15:05:10;9.18;;;4.43;;
74799;SDS011;63326;45.088;7.658;2024-03-08T15:07:40;6.47;;;3.03;;
74799;SDS011;63326;45.088;7.658;2024-03-08T15:10:09;5.32;;;2.22;;
74799;SDS011;63326;45.088;7.658;2024-03-08T15:12:44;5.63;;;2.63;;
74799;SDS011;63326;45.088;7.658;2024-03-08T15:15:28;3.10;;;1.77;;
74799;SDS011;63326;45.088;7.658;2024-03-08T15:18:02;2.45;;;1.08;;
74799;SDS011;63326;45.088;7.658;2024-03-08T15:20:36;2.22;;;0.93;;
74799;SDS011;63326;45.088;7.658;2024-03-08T15:23:03;2.17;;;0.90;;
74799;SDS011;63326;45.088;7.658;2024-03-08T15:25:30;2.53;;;1.25;;
74799;SDS011;63326;45.088;7.658;2024-03-08T15:31:31;2.55;;;1.75;;
74799;SDS011;63326;45.088;7.658;2024-03-08T15:33:59;2.95;;;1.70;;
74799;SDS011;63326;45.088;7.658;2024-03-08T15:37:17;4.43;;;1.95;;
74799;SDS011;63326;45.088;7.658;2024-03-08T15:39:45;4.32;;;1.67;;
74799;SDS011;63326;45.088;7.658;2024-03-08T15:42:15;2.97;;;1.75;;
74799;SDS011;63326;45.088;7.658;2024-03-08T15:44:58;3.22;;;1.45;;
74799;SDS011;63326;45.088;7.658;2024-03-08T15:47:37;3.35;;;1.63;;
74799;SDS011;63326;45.088;7.658;2024-03-08T15:50:23;2.63;;;1.27;;
74799;SDS011;63326;45.088;7.658;2024-03-08T15:52:51;3.42;;;1.63;;
74799;SDS011;63326;45.088;7.658;2024-03-08T15:55:40;5.70;;;1.85;;
74799;SDS011;63326;45.088;7.658;2024-03-08T15:58:07;2.95;;;1.50;;
74799;SDS011;63326;45.088;7.658;2024-03-08T16:00:42;3.35;;;1.70;;